Sanpo Maru No.5 — JL6343 — position and weather

sailwx.info

Track history (hours):
 
Tides and Currents Weather Stations Pressure Air Temp Water Temp Dewpoint Dewpoint Depression Visibility Wind Speed Wind Dir Waves Ship Positions

Sanpo Maru No.5

Last reported at 2017-Jan-21 10:32 UTC. Time now 2017-Jan-23 00:14 UTC.
Position N 35°06' E 139°45'.

Length 71 m; draft 4.5 m.

Type: Ship. MMSI: 431500283.

Date/timePositionNaut miles runAvg speedWind from/ knotsBaromVisibWave heightAir tempDewpointWater temp
2017-Jan-21 10:32N 35°06' E 139°45'1010.5
2017-Jan-21 09:33N 35°17' E 139°45'9 9.2
2017-Jan-21 08:33N 35°26' E 139°45'5 4.8
2017-Jan-21 07:33N 35°29' E 139°49'0 0.0
2017-Jan-21 06:33N 35°29' E 139°49'0 0.0
2017-Jan-21 05:33N 35°29' E 139°49'0 0.0
2017-Jan-21 04:33N 35°29' E 139°49'4 3.8
2017-Jan-21 03:33N 35°30' E 139°54'7 1.3
2017-Jan-20 22:28N 35°30' E 140°02'2 2.6
2017-Jan-20 21:33N 35°31' E 139°60'0 0.0
2017-Jan-20 20:33N 35°31' E 139°60'0 0.0
2017-Jan-20 19:30N 35°31' E 139°60'0 0.1
2017-Jan-20 18:33N 35°31' E 139°60'0 0.0
2017-Jan-20 17:33N 35°31' E 139°60'0 0.0
2017-Jan-20 16:33N 35°31' E 139°60'0 0.0
2017-Jan-20 15:33N 35°31' E 139°60'0 0.0
2017-Jan-20 14:33N 35°31' E 139°60'0 0.0
2017-Jan-20 13:33N 35°31' E 139°60'0 0.0
2017-Jan-20 12:33N 35°31' E 139°60'0 0.0
2017-Jan-20 11:24N 35°31' E 139°60'0 0.0
2017-Jan-20 10:30N 35°31' E 139°60'4 3.4
2017-Jan-20 09:10N 35°29' E 139°54'710.6
2017-Jan-20 08:33N 35°25' E 139°48'9 9.5
2017-Jan-20 07:33N 35°16' E 139°46'1110.4
2017-Jan-20 06:33N 35°06' E 139°45'  
2017-Jan-11 15:28N 35°08' E 139°45'9 9.9
2017-Jan-11 14:34N 35°17' E 139°45'8 8.5
2017-Jan-11 13:34N 35°26' E 139°45'1010.3
2017-Jan-11 12:34N 35°30' E 139°56'4 4.3
2017-Jan-11 11:31N 35°30' E 140°02'0 0.0
2017-Jan-11 10:34N 35°30' E 140°02'  
Track history (hours):
 
Tides and Currents Weather Stations Pressure Air Temp Water Temp Dewpoint Dewpoint Depression Visibility Wind Speed Wind Dir Waves Ship Positions

Sanpo Maru No.5

Last reported at 2017-Jan-21 10:32 UTC. Time now 2017-Jan-23 00:14 UTC.
Position N 35°06' E 139°45'.

Length 71 m; draft 4.5 m.

Type: Ship. MMSI: 431500283.

Date/timePositionNaut miles runAvg speedWind from/ knotsBaromVisibWave heightAir tempDewpointWater temp
2017-Jan-21 10:32N 35°06' E 139°45'1010.5
2017-Jan-21 09:33N 35°17' E 139°45'9 9.2
2017-Jan-21 08:33N 35°26' E 139°45'5 4.8
2017-Jan-21 07:33N 35°29' E 139°49'0 0.0
2017-Jan-21 06:33N 35°29' E 139°49'0 0.0
2017-Jan-21 05:33N 35°29' E 139°49'0 0.0
2017-Jan-21 04:33N 35°29' E 139°49'4 3.8
2017-Jan-21 03:33N 35°30' E 139°54'7 1.3
2017-Jan-20 22:28N 35°30' E 140°02'2 2.6
2017-Jan-20 21:33N 35°31' E 139°60'0 0.0
2017-Jan-20 20:33N 35°31' E 139°60'0 0.0
2017-Jan-20 19:30N 35°31' E 139°60'0 0.1
2017-Jan-20 18:33N 35°31' E 139°60'0 0.0
2017-Jan-20 17:33N 35°31' E 139°60'0 0.0
2017-Jan-20 16:33N 35°31' E 139°60'0 0.0
2017-Jan-20 15:33N 35°31' E 139°60'0 0.0
2017-Jan-20 14:33N 35°31' E 139°60'0 0.0
2017-Jan-20 13:33N 35°31' E 139°60'0 0.0
2017-Jan-20 12:33N 35°31' E 139°60'0 0.0
2017-Jan-20 11:24N 35°31' E 139°60'0 0.0
2017-Jan-20 10:30N 35°31' E 139°60'4 3.4
2017-Jan-20 09:10N 35°29' E 139°54'710.6
2017-Jan-20 08:33N 35°25' E 139°48'9 9.5
2017-Jan-20 07:33N 35°16' E 139°46'1110.4
2017-Jan-20 06:33N 35°06' E 139°45'  
2017-Jan-11 15:28N 35°08' E 139°45'9 9.9
2017-Jan-11 14:34N 35°17' E 139°45'8 8.5
2017-Jan-11 13:34N 35°26' E 139°45'1010.3
2017-Jan-11 12:34N 35°30' E 139°56'4 4.3
2017-Jan-11 11:31N 35°30' E 140°02'0 0.0
2017-Jan-11 10:34N 35°30' E 140°02'  

Dump ship's entire track history